Grand Prairie, TX (75050)

10:04 PM CST on February 19, 2017 (GMT -0600)
North Central | | Change Station

Elev 480 ft 32.76 °N, 97.02 °W | Updated 5 seconds ago

Overcast
Overcast
70.2 °F
Feels Like 71 °F
N
0.0
Wind Variable Wind from North
Gusts 0.0 mph

Today
High -- | Low -- °F
--% Chance of Precip.
Yesterday
High -- | Low -- °F
Precip. -- in
Pressure 29.86 in
Visibility 7.0 miles
Clouds Overcast 1300 ft
Heat Index 71 °F
Dew Point 64 °F
Humidity 80%
Rainfall 0.00 in
Snow Depth Not available.
7:06 AM 6:17 PM
Last Quarter, 37% visible
METAR KGPM 200355Z AUTO 12009G16KT 7SM OVC013 21/18 A2986 RMK AO2 T02080180
Pressure 29.86 in
Visibility 7.0 miles
Clouds Overcast 1300 ft
Heat Index 71 °F
Dew Point 64 °F
Humidity 80%
Rainfall 0.00 in
Snow Depth Not available.
7:06 AM 6:17 PM
Last Quarter, 37% visible
METAR KGPM 200355Z AUTO 12009G16KT 7SM OVC013 21/18 A2986 RMK AO2 T02080180

Get Your Daily Forecast Email!

Thanks for signing up!

Be on the lookout for a verification email in your inbox.

You'll start receiving the daily forecast at 8 AM.

×

10-Day Weather Forecast

Almanac

Astronomy

Feb. 19, 2017 Rise Set
Actual Time
Civil Twilight
Nautical Twilight
Astronomical Twilight
Moon
Length of Visible Light
Length of Day
Tomorrow will be .
, % of the Moon is Illuminated

Today's Extremes

State Highs State Lows

Community

WunderPhotos

Upload Photos

1,962,540 photos uploaded!

WunderBlog® & News

Nearby

Air Quality

  Air Quality AQ Index Pollutant
Not available.

Snow Depth

Station Depth Elevation

Earthquake Activity

City Distance Mag. Time & Date
Minimum magnitude displayed is 2.5.

Coastal Water Temperatures

Place Temperature

Stations

Nearby Weather Stations

Station Location Temp. Windchill Dew Point Humidity Wind Precip. Elev Updated Type
                   

Watches & Warnings

There are currently no watches in effect.